createdAt,value
2023-02-02T00:02:07.092Z,8.10
2023-02-02T00:05:20.303Z,9.50
2023-02-02T00:08:21.370Z,8.50
2023-02-02T00:10:59.132Z,9.80
2023-02-02T00:13:52.646Z,8.20
2023-02-02T00:16:32.921Z,9.30
2023-02-02T00:19:30.132Z,8.80
2023-02-02T00:22:04.737Z,9.10
2023-02-02T00:25:05.538Z,9.20
2023-02-02T00:27:40.509Z,8.90
2023-02-02T00:30:21.905Z,8.40
2023-02-02T00:39:02.827Z,7.80
2023-02-02T00:41:35.197Z,9.60
2023-02-02T00:44:34.293Z,8.40
2023-02-02T00:47:05.943Z,7.00
2023-02-02T00:49:38.148Z,8.40
2023-02-02T00:52:13.611Z,8.80
2023-02-02T00:54:45.900Z,8.50
2023-02-02T00:57:18.359Z,9.20
2023-02-02T00:59:47.316Z,8.30
2023-02-02T01:02:17.469Z,7.30
2023-02-02T01:04:46.742Z,8.70
2023-02-02T01:07:16.025Z,8.70
2023-02-02T01:09:45.492Z,9.20
2023-02-02T01:12:18.604Z,8.70
2023-02-02T01:14:53.203Z,8.20
2023-02-02T01:17:28.465Z,9.50
2023-02-02T01:19:58.739Z,9.60
2023-02-02T01:22:30.778Z,9.40
2023-02-02T01:25:00.561Z,11.10
2023-02-02T01:27:29.245Z,10.00
2023-02-02T01:30:01.059Z,9.10
2023-02-02T01:32:35.687Z,9.20
2023-02-02T01:35:06.279Z,8.40
2023-02-02T01:37:36.218Z,7.80
2023-02-02T01:40:11.241Z,7.30
2023-02-02T01:42:42.238Z,6.80
2023-02-02T01:45:22.977Z,7.40
2023-02-02T01:47:58.523Z,6.50
2023-02-02T01:50:32.945Z,5.90
2023-02-02T01:53:07.744Z,5.90
2023-02-02T01:55:39.949Z,5.70
2023-02-02T01:58:20.323Z,5.90
2023-02-02T02:00:50.928Z,5.90
2023-02-02T02:03:28.023Z,6.80
2023-02-02T02:06:06.113Z,7.40
2023-02-02T02:08:52.639Z,6.10
2023-02-02T02:11:23.512Z,7.00
2023-02-02T02:14:13.503Z,7.30
2023-02-02T02:17:09.493Z,8.10
2023-02-02T02:20:45.351Z,7.40
2023-02-02T02:24:11.425Z,7.70
2023-02-02T02:27:12.558Z,8.60
2023-02-02T02:30:10.836Z,6.60
2023-02-02T02:32:59.588Z,7.10
2023-02-02T02:35:43.309Z,7.70
2023-02-02T02:38:34.219Z,6.40
2023-02-02T02:41:07.524Z,6.40
2023-02-02T02:43:42.310Z,6.50
2023-02-02T02:46:12.412Z,6.50
2023-02-02T02:48:50.570Z,6.10
2023-02-02T02:51:46.062Z,5.50
2023-02-02T02:54:33.499Z,5.60
2023-02-02T02:57:17.618Z,5.50
2023-02-02T03:00:12.571Z,6.40
2023-02-02T03:03:23.560Z,5.30
2023-02-02T03:06:09.574Z,7.00
2023-02-02T03:08:45.873Z,5.50
2023-02-02T03:11:18.954Z,5.60
2023-02-02T03:13:48.909Z,5.10
2023-02-02T03:16:18.410Z,6.10
2023-02-02T03:18:49.362Z,5.40
2023-02-02T03:21:20.302Z,5.30
2023-02-02T03:23:50.725Z,5.20
2023-02-02T03:26:21.914Z,5.20
2023-02-02T03:28:52.505Z,5.50
2023-02-02T03:31:22.371Z,4.70
2023-02-02T03:33:51.466Z,4.60
2023-02-02T03:36:22.756Z,5.90
2023-02-02T03:38:56.989Z,5.50
2023-02-02T03:41:28.013Z,5.60
2023-02-02T03:44:00.768Z,5.40
2023-02-02T03:46:34.039Z,5.50
2023-02-02T03:49:03.631Z,6.10
2023-02-02T03:51:33.772Z,6.50
2023-02-02T03:54:03.944Z,7.10
2023-02-02T03:56:42.550Z,5.80
2023-02-02T03:59:12.270Z,6.30
2023-02-02T04:01:45.349Z,7.30
2023-02-02T04:04:14.780Z,7.40
2023-02-02T04:06:50.553Z,8.30
2023-02-02T04:09:19.120Z,8.50
2023-02-02T04:11:48.615Z,9.30
2023-02-02T04:14:17.912Z,9.70
2023-02-02T04:16:47.186Z,9.30
2023-02-02T04:19:19.059Z,8.60
2023-02-02T04:21:50.697Z,7.60
2023-02-02T04:24:21.606Z,6.90
2023-02-02T04:26:52.702Z,6.90
2023-02-02T04:29:21.586Z,7.60
2023-02-02T04:31:51.240Z,6.90
2023-02-02T04:34:23.896Z,6.40
2023-02-02T04:36:56.185Z,5.50
2023-02-02T04:39:27.310Z,4.90
2023-02-02T04:42:03.724Z,6.90
2023-02-02T04:44:33.383Z,6.60
2023-02-02T04:47:06.981Z,7.50
2023-02-02T04:49:41.377Z,7.50
2023-02-02T04:52:12.447Z,7.70
2023-02-02T04:54:45.872Z,6.40
2023-02-02T04:57:18.847Z,6.90
2023-02-02T05:02:22.719Z,8.00
2023-02-02T05:04:52.915Z,7.50
2023-02-02T05:07:21.355Z,8.70
2023-02-02T05:09:56.372Z,10.70
2023-02-02T05:12:30.091Z,8.80
2023-02-02T05:15:03.805Z,9.20
2023-02-02T05:17:36.613Z,8.90
2023-02-02T05:20:06.192Z,7.70
2023-02-02T05:22:35.880Z,6.80
2023-02-02T05:25:07.040Z,7.50
2023-02-02T05:27:38.759Z,6.80
2023-02-02T05:30:09.672Z,9.30
2023-02-02T05:32:40.501Z,6.30
2023-02-02T05:35:14.458Z,7.80
2023-02-02T05:37:44.211Z,8.40
2023-02-02T05:40:14.012Z,7.90
2023-02-02T05:42:44.284Z,7.00
2023-02-02T05:45:16.210Z,7.90
2023-02-02T05:47:48.989Z,7.00
2023-02-02T05:50:19.335Z,7.50
2023-02-02T05:52:51.274Z,7.80
2023-02-02T05:55:21.495Z,10.50
2023-02-02T05:57:52.387Z,9.80
2023-02-02T06:00:21.389Z,8.30
2023-02-02T06:06:41.806Z,8.80
2023-02-02T06:09:38.402Z,8.80
2023-02-02T06:12:12.903Z,7.80
2023-02-02T06:14:42.033Z,7.80
2023-02-02T06:17:19.964Z,7.40
2023-02-02T06:19:50.293Z,9.30
2023-02-02T06:22:19.825Z,9.70
2023-02-02T06:24:52.874Z,12.90
2023-02-02T06:27:24.632Z,15.30
2023-02-02T06:30:01.064Z,16.50
2023-02-02T06:32:33.279Z,15.50
2023-02-02T06:35:23.393Z,15.00
2023-02-02T06:37:56.325Z,12.40
2023-02-02T06:40:55.515Z,12.20
2023-02-02T06:43:26.292Z,10.40
2023-02-02T06:45:59.691Z,9.90
2023-02-02T06:48:33.297Z,10.70
2023-02-02T06:51:05.184Z,9.40
2023-02-02T06:53:37.403Z,12.00
2023-02-02T06:56:12.989Z,10.30
2023-02-02T06:59:10.215Z,9.20
2023-02-02T07:02:12.821Z,8.90
2023-02-02T07:04:46.082Z,8.20
2023-02-02T07:07:17.326Z,9.20
2023-02-02T07:09:58.050Z,9.10
2023-02-02T07:12:32.866Z,8.10
2023-02-02T07:15:03.923Z,9.20
2023-02-02T07:17:37.474Z,10.90
2023-02-02T07:20:07.778Z,10.90
2023-02-02T07:22:44.896Z,11.90
2023-02-02T07:25:12.278Z,12.20
2023-02-02T07:28:16.595Z,9.70
2023-02-02T07:30:48.037Z,9.20
2023-02-02T07:33:18.224Z,8.70
2023-02-02T07:35:57.144Z,9.10
2023-02-02T07:38:55.536Z,8.60
2023-02-02T07:41:27.944Z,8.70
2023-02-02T07:43:59.296Z,8.50
2023-02-02T07:46:37.515Z,8.80
2023-02-02T07:49:09.371Z,8.90
2023-02-02T07:51:46.360Z,8.40
2023-02-02T07:54:23.392Z,9.20
2023-02-02T07:57:08.144Z,9.50
2023-02-02T07:59:43.594Z,8.10
2023-02-02T08:02:19.031Z,7.50
2023-02-02T08:04:52.759Z,6.50
2023-02-02T08:07:25.445Z,7.70
2023-02-02T08:12:26.477Z,8.50
2023-02-02T08:14:54.056Z,7.70
2023-02-02T08:17:30.285Z,8.30
2023-02-02T08:20:01.302Z,8.80
2023-02-02T08:22:34.992Z,8.30
2023-02-02T08:25:04.879Z,10.60
2023-02-02T08:28:05.932Z,10.30
2023-02-02T08:30:41.516Z,11.50
2023-02-02T08:34:06.744Z,12.00
2023-02-02T08:36:40.778Z,11.70
2023-02-02T08:39:17.381Z,13.70
2023-02-02T08:41:55.595Z,15.00
2023-02-02T08:44:45.559Z,14.80
2023-02-02T08:47:36.871Z,14.00
2023-02-02T08:50:59.454Z,13.00
2023-02-02T08:53:35.399Z,14.50
2023-02-02T08:56:24.394Z,13.60
2023-02-02T08:59:20.461Z,12.80
2023-02-02T09:01:54.418Z,12.30
2023-02-02T09:04:29.860Z,11.00
2023-02-02T09:07:04.429Z,10.20
2023-02-02T09:09:35.381Z,10.00
2023-02-02T09:12:03.985Z,8.90
2023-02-02T09:14:41.138Z,10.50
2023-02-02T09:17:11.214Z,9.50
2023-02-02T09:19:53.406Z,8.30
2023-02-02T09:22:27.936Z,9.40
2023-02-02T09:24:57.674Z,9.90
2023-02-02T09:27:28.037Z,10.20
2023-02-02T09:29:59.195Z,8.00
2023-02-02T09:32:34.302Z,8.40
2023-02-02T09:35:14.469Z,7.90
2023-02-02T09:37:52.786Z,8.30
2023-02-02T09:40:30.064Z,8.20
2023-02-02T09:43:18.564Z,6.90
2023-02-02T09:45:58.494Z,9.10
2023-02-02T09:49:05.840Z,9.30
2023-02-02T09:51:40.337Z,8.50
2023-02-02T09:54:22.536Z,7.70
2023-02-02T09:56:55.391Z,8.40
2023-02-02T09:59:36.497Z,9.80
2023-02-02T10:02:57.026Z,10.40
2023-02-02T10:05:32.724Z,9.00
2023-02-02T10:08:02.107Z,9.70
2023-02-02T10:10:38.690Z,7.00
2023-02-02T10:13:21.589Z,7.30
2023-02-02T10:16:38.549Z,6.80
2023-02-02T10:19:24.867Z,7.50
2023-02-02T10:22:17.477Z,8.20
2023-02-02T10:24:45.948Z,8.70
2023-02-02T10:27:39.747Z,8.50
2023-02-02T10:30:20.389Z,8.70
2023-02-02T10:33:03.222Z,7.30
2023-02-02T10:35:56.310Z,8.00
2023-02-02T10:38:47.564Z,5.60
2023-02-02T10:41:20.748Z,6.30
2023-02-02T10:44:02.901Z,8.10
2023-02-02T10:46:51.066Z,9.20
2023-02-02T10:50:16.160Z,8.20
2023-02-02T10:53:26.679Z,7.40
2023-02-02T10:56:11.327Z,6.00
2023-02-02T10:59:02.416Z,5.70
2023-02-02T11:01:41.819Z,5.40
2023-02-02T11:04:35.478Z,7.20
2023-02-02T11:07:06.632Z,6.30
2023-02-02T11:10:04.129Z,6.30
2023-02-02T11:12:36.997Z,5.50
2023-02-02T11:16:01.796Z,6.50
2023-02-02T11:19:03.955Z,5.50
2023-02-02T11:21:37.162Z,5.50
2023-02-02T11:24:21.189Z,5.10
2023-02-02T11:27:00.942Z,7.80
2023-02-02T11:30:02.355Z,5.70
2023-02-02T11:32:57.823Z,6.70
2023-02-02T11:35:31.616Z,7.30
2023-02-02T11:38:24.990Z,7.60
2023-02-02T11:40:56.063Z,6.90
2023-02-02T11:43:31.847Z,6.70
2023-02-02T11:46:34.379Z,8.80
2023-02-02T11:49:14.151Z,7.40
2023-02-02T11:52:03.841Z,5.30
2023-02-02T11:54:47.605Z,6.80
2023-02-02T11:57:24.685Z,5.40
2023-02-02T12:00:26.427Z,5.00
2023-02-02T12:02:59.664Z,5.90
2023-02-02T12:05:46.195Z,5.60
2023-02-02T12:08:26.129Z,5.00
2023-02-02T12:11:34.018Z,5.10
2023-02-02T12:14:32.111Z,8.50
2023-02-02T12:17:29.219Z,6.20
2023-02-02T12:20:18.500Z,6.00
2023-02-02T12:23:13.871Z,6.10
2023-02-02T12:26:19.147Z,6.00
2023-02-02T12:29:15.929Z,5.60
2023-02-02T12:32:04.431Z,5.10
2023-02-02T12:34:50.376Z,6.20
2023-02-02T12:37:56.127Z,7.70
2023-02-02T12:41:20.664Z,7.50
2023-02-02T12:43:54.965Z,7.60
2023-02-02T12:49:20.613Z,7.80
2023-02-02T12:52:32.164Z,5.90
2023-02-02T12:55:26.686Z,7.60
2023-02-02T12:58:31.144Z,8.00
2023-02-02T13:01:38.154Z,6.80
2023-02-02T13:04:20.467Z,6.00
2023-02-02T13:07:13.117Z,7.30
2023-02-02T13:09:51.899Z,10.30
2023-02-02T13:12:22.126Z,7.60
2023-02-02T13:15:10.186Z,9.20
2023-02-02T13:18:02.950Z,8.90
2023-02-02T13:20:48.388Z,10.60
2023-02-02T13:24:00.828Z,9.20
2023-02-02T13:26:37.347Z,6.40
2023-02-02T13:29:34.941Z,6.30
2023-02-02T13:32:37.419Z,6.70
2023-02-02T13:35:25.239Z,6.60
2023-02-02T13:38:22.755Z,6.50
2023-02-02T13:40:54.779Z,6.80
2023-02-02T13:44:16.260Z,7.50
2023-02-02T13:47:21.883Z,8.00
2023-02-02T13:49:57.955Z,8.20
2023-02-02T13:53:12.780Z,8.40
2023-02-02T13:55:57.028Z,6.70
2023-02-02T13:58:39.855Z,6.70
2023-02-02T14:01:10.752Z,6.10
2023-02-02T14:03:44.402Z,7.60
2023-02-02T14:06:19.472Z,7.00
2023-02-02T14:08:56.608Z,8.40
2023-02-02T14:12:00.003Z,8.10
2023-02-02T14:14:35.463Z,6.50
2023-02-02T14:17:37.259Z,6.90
2023-02-02T14:20:50.523Z,7.50
2023-02-02T14:23:55.613Z,7.60
2023-02-02T14:26:49.198Z,7.70
2023-02-02T14:29:33.216Z,8.30
2023-02-02T14:32:32.406Z,8.00
2023-02-02T14:35:15.763Z,8.00
2023-02-02T14:38:17.978Z,8.20
2023-02-02T14:42:00.678Z,8.10
2023-02-02T14:44:34.369Z,8.60
2023-02-02T14:47:04.489Z,10.80
2023-02-02T14:49:40.211Z,8.70
2023-02-02T14:52:20.406Z,13.70
2023-02-02T14:54:51.558Z,10.00
2023-02-02T14:57:54.321Z,11.10
2023-02-02T15:00:27.244Z,11.10
2023-02-02T15:02:56.547Z,10.60
2023-02-02T15:05:38.697Z,10.70
2023-02-02T15:08:25.798Z,11.30
2023-02-02T15:12:08.583Z,12.00
2023-02-02T15:15:25.471Z,10.00
2023-02-02T15:18:43.265Z,11.40
2023-02-02T15:21:14.744Z,11.10
2023-02-02T15:23:47.009Z,11.10
2023-02-02T15:26:36.465Z,10.90
2023-02-02T15:29:54.880Z,11.40
2023-02-02T15:32:48.376Z,10.10
2023-02-02T15:35:41.969Z,11.10
2023-02-02T15:38:17.473Z,12.20
2023-02-02T15:40:47.250Z,12.60
2023-02-02T15:43:20.351Z,13.70
2023-02-02T15:46:07.169Z,15.90
2023-02-02T15:48:39.995Z,14.10
2023-02-02T15:51:33.230Z,17.70
2023-02-02T15:54:57.442Z,15.30
2023-02-02T15:57:40.152Z,15.30
2023-02-02T16:00:37.580Z,20.90
2023-02-02T16:03:14.640Z,23.60
2023-02-02T16:05:49.439Z,21.20
2023-02-02T16:08:50.632Z,19.30
2023-02-02T16:11:48.723Z,15.20
2023-02-02T16:14:20.723Z,15.80
2023-02-02T16:16:57.473Z,15.30
2023-02-02T16:19:25.515Z,15.00
2023-02-02T16:22:02.270Z,16.00
2023-02-02T16:24:41.372Z,14.70
2023-02-02T16:27:19.376Z,14.70
2023-02-02T16:30:08.117Z,15.00
2023-02-02T16:32:47.187Z,13.60
2023-02-02T16:35:46.159Z,14.00
2023-02-02T16:38:30.059Z,12.30
2023-02-02T16:41:40.429Z,14.70
2023-02-02T16:44:43.288Z,14.20
2023-02-02T16:47:44.689Z,15.20
2023-02-02T16:50:40.727Z,13.70
2023-02-02T16:53:13.902Z,12.30
2023-02-02T16:55:57.421Z,12.40
2023-02-02T16:58:40.270Z,12.30
2023-02-02T17:04:28.235Z,13.40
2023-02-02T17:06:58.077Z,13.00
2023-02-02T17:09:37.028Z,14.10
2023-02-02T17:12:34.827Z,15.70
2023-02-02T17:15:53.246Z,14.60
2023-02-02T17:18:25.768Z,12.80
2023-02-02T17:20:57.176Z,12.60
2023-02-02T17:23:26.349Z,13.90
2023-02-02T17:25:58.725Z,12.70
2023-02-02T17:29:02.345Z,15.00
2023-02-02T17:31:36.942Z,14.10
2023-02-02T17:34:13.320Z,13.80
2023-02-02T17:36:44.759Z,16.30
2023-02-02T17:39:17.540Z,13.90
2023-02-02T17:41:51.128Z,13.50
2023-02-02T17:44:22.518Z,12.70
2023-02-02T17:46:52.152Z,13.00
2023-02-02T17:49:22.473Z,14.30
2023-02-02T17:51:54.621Z,14.00
2023-02-02T17:54:27.613Z,13.40
2023-02-02T17:56:56.722Z,13.20
2023-02-02T17:59:33.790Z,13.00
2023-02-02T18:02:05.906Z,14.30
2023-02-02T18:04:40.453Z,13.30
2023-02-02T18:07:14.650Z,12.40
2023-02-02T18:09:48.287Z,13.70
2023-02-02T18:12:45.733Z,11.30
2023-02-02T18:15:33.446Z,13.60
2023-02-02T18:18:03.460Z,14.20
2023-02-02T18:20:47.520Z,12.20
2023-02-02T18:24:34.933Z,14.00
2023-02-02T18:27:05.467Z,12.20
2023-02-02T18:29:36.967Z,12.10
2023-02-02T18:32:22.709Z,10.40
2023-02-02T18:34:56.968Z,11.30
2023-02-02T18:37:36.250Z,11.90
2023-02-02T18:40:09.896Z,15.10
2023-02-02T18:42:40.499Z,12.30
2023-02-02T18:45:36.265Z,12.60
2023-02-02T18:48:11.667Z,11.60
2023-02-02T18:50:41.033Z,10.20
2023-02-02T18:53:11.377Z,9.80
2023-02-02T18:55:45.646Z,10.00
2023-02-02T18:58:18.548Z,12.60
2023-02-02T19:00:49.787Z,12.20
2023-02-02T19:03:23.414Z,12.00
2023-02-02T19:06:13.895Z,11.80
2023-02-02T19:09:12.803Z,13.20
2023-02-02T19:12:40.433Z,11.50
2023-02-02T19:15:27.262Z,10.00
2023-02-02T19:18:01.927Z,11.10
2023-02-02T19:20:36.258Z,12.10
2023-02-02T19:23:29.071Z,11.10
2023-02-02T19:25:59.930Z,12.10
2023-02-02T19:28:35.113Z,13.60
2023-02-02T19:31:09.765Z,15.40
2023-02-02T19:33:58.597Z,15.10
2023-02-02T19:36:30.905Z,14.90
2023-02-02T19:39:31.701Z,18.00
2023-02-02T19:42:02.618Z,14.70
2023-02-02T19:44:39.749Z,13.30
2023-02-02T19:47:32.455Z,15.10
2023-02-02T19:50:24.619Z,16.10
2023-02-02T19:52:57.144Z,17.80
2023-02-02T19:55:29.915Z,16.90
2023-02-02T19:58:26.612Z,18.00
2023-02-02T20:01:03.780Z,19.30
2023-02-02T20:03:45.309Z,16.70
2023-02-02T20:06:22.638Z,13.30
2023-02-02T20:08:54.285Z,13.90
2023-02-02T20:11:35.856Z,13.50
2023-02-02T20:14:30.701Z,13.10
2023-02-02T20:17:21.162Z,13.60
2023-02-02T20:19:50.016Z,12.60
2023-02-02T20:22:31.842Z,11.30
2023-02-02T20:25:09.957Z,10.90
2023-02-02T20:27:50.059Z,10.50
2023-02-02T20:30:36.493Z,11.60
2023-02-02T20:33:36.533Z,11.90
2023-02-02T20:36:27.532Z,11.70
2023-02-02T20:39:27.042Z,12.20
2023-02-02T20:41:59.840Z,13.00
2023-02-02T20:44:57.614Z,13.20
2023-02-02T20:47:29.778Z,14.40
2023-02-02T20:50:04.521Z,13.60
2023-02-02T20:52:43.727Z,14.90
2023-02-02T20:55:13.939Z,14.50
2023-02-02T20:57:43.346Z,14.70
2023-02-02T21:00:18.461Z,14.30
2023-02-02T21:02:55.878Z,14.60
2023-02-02T21:05:28.157Z,13.10
2023-02-02T21:07:57.441Z,16.40
2023-02-02T21:10:27.655Z,15.70
2023-02-02T21:13:01.194Z,16.80
2023-02-02T21:15:41.053Z,15.00
2023-02-02T21:18:12.308Z,13.60
2023-02-02T21:20:46.879Z,15.10
2023-02-02T21:30:45.445Z,13.70
2023-02-02T21:33:21.301Z,15.20
2023-02-02T21:35:50.583Z,14.40
2023-02-02T21:38:25.201Z,13.00
2023-02-02T21:40:59.037Z,14.00
2023-02-02T21:43:35.533Z,12.90
2023-02-02T21:46:03.542Z,14.10
2023-02-02T21:48:35.491Z,11.40
2023-02-02T21:51:41.961Z,11.70
2023-02-02T21:54:27.562Z,12.90
2023-02-02T21:57:34.896Z,12.70
2023-02-02T22:00:26.259Z,12.30
2023-02-02T22:03:02.847Z,11.90
2023-02-02T22:05:36.093Z,11.30
2023-02-02T22:08:19.331Z,13.20
2023-02-02T22:13:25.241Z,11.10
2023-02-02T22:16:37.723Z,11.70
2023-02-02T22:19:19.466Z,12.60
2023-02-02T22:21:52.759Z,12.70
2023-02-02T22:24:24.437Z,13.50
2023-02-02T22:27:23.366Z,11.90
2023-02-02T22:29:58.593Z,13.60
2023-02-02T22:32:33.655Z,13.40
2023-02-02T22:35:08.407Z,13.10
2023-02-02T22:37:41.857Z,11.60
2023-02-02T22:40:11.636Z,11.60
2023-02-02T22:42:50.010Z,9.50
2023-02-02T22:45:21.832Z,9.90
2023-02-02T22:47:53.770Z,9.10
2023-02-02T22:50:25.106Z,9.20
2023-02-02T22:52:55.574Z,8.70
2023-02-02T22:55:28.837Z,8.00
2023-02-02T22:58:01.394Z,8.10
2023-02-02T23:00:36.703Z,9.80
2023-02-02T23:03:06.298Z,9.40
2023-02-02T23:05:39.137Z,9.30
2023-02-02T23:08:09.191Z,8.40
2023-02-02T23:11:01.273Z,7.60
2023-02-02T23:13:30.474Z,7.70
2023-02-02T23:16:01.588Z,8.30
2023-02-02T23:18:31.080Z,6.50
2023-02-02T23:21:04.112Z,8.10
2023-02-02T23:23:32.165Z,7.30
2023-02-02T23:26:01.033Z,8.10
2023-02-02T23:28:31.171Z,9.30
2023-02-02T23:31:02.475Z,8.60
2023-02-02T23:33:31.888Z,7.60
2023-02-02T23:36:02.286Z,6.20
2023-02-02T23:39:01.790Z,7.30
2023-02-02T23:42:01.182Z,7.10
2023-02-02T23:44:31.909Z,5.90
2023-02-02T23:47:04.491Z,6.60
2023-02-02T23:49:57.849Z,6.20
2023-02-02T23:52:32.469Z,6.20
2023-02-02T23:55:01.086Z,6.50
2023-02-02T23:57:36.387Z,5.50
